F/V Attalaya Berria — FHCB — position and weather

sailwx.info

Track history (hours):
 
Tides and Currents Weather Stations Pressure Air Temp Water Temp Dewpoint Dewpoint Depression Visibility Wind Speed Wind Dir Waves Ship Positions

F/V Attalaya Berria

Last reported at 2015-Jul-31 12:33 UTC. Time now 2015-Jul-31 21:26 UTC.
Position N 43°23' W 001°47'.

Length 26 m.

Type: Fishing. MMSI: 228315000.

Date/timePositionNaut miles runAvg speedWind from/ knotsBaromVisibWave heightAir tempDewpointWater temp
2015-Jul-31 12:33N 43°23' W 001°47'1 0.1
2015-Jul-31 03:33N 43°23' W 001°47'1 0.7
2015-Jul-31 02:33N 43°23' W 001°47'0 0.2
2015-Jul-31 01:33N 43°23' W 001°47'0 0.0
2015-Jul-31 00:33N 43°23' W 001°47'0 0.0
2015-Jul-30 23:33N 43°23' W 001°47'0 0.0
2015-Jul-30 22:33N 43°23' W 001°47'0 0.0
2015-Jul-30 21:33N 43°23' W 001°47'0 0.0
2015-Jul-30 20:33N 43°23' W 001°47'0 0.0
2015-Jul-30 19:33N 43°23' W 001°47'0 0.0
2015-Jul-30 18:33N 43°23' W 001°47'0 0.0
2015-Jul-30 17:33N 43°23' W 001°47'0 0.1
2015-Jul-30 16:33N 43°23' W 001°47'5 5.3
2015-Jul-30 15:32N 43°23' W 001°40'0 0.1
2015-Jul-30 14:31N 43°23' W 001°40'3 3.4
2015-Jul-30 13:33N 43°25' W 001°44'3 3.0
2015-Jul-30 12:33N 43°23' W 001°47'0 0.0
2015-Jul-30 11:33N 43°23' W 001°47'0 0.0
2015-Jul-30 10:33N 43°23' W 001°47'0 0.0
2015-Jul-30 09:33N 43°23' W 001°47'0 0.0
2015-Jul-30 08:33N 43°23' W 001°47'0 0.0
2015-Jul-30 07:33N 43°23' W 001°47'0 0.0
2015-Jul-30 06:33N 43°23' W 001°47'0 0.0
2015-Jul-30 05:33N 43°23' W 001°47'0 0.0
2015-Jul-30 04:33N 43°23' W 001°47'0 0.2
2015-Jul-30 03:34N 43°23' W 001°47'0 0.1
2015-Jul-30 02:33N 43°23' W 001°47'0 0.4
2015-Jul-30 01:33N 43°23' W 001°47'0 0.1
2015-Jul-30 00:33N 43°23' W 001°47'0 0.0
2015-Jul-29 23:33N 43°23' W 001°47'0 0.0
2015-Jul-29 22:33N 43°23' W 001°47'0 0.0
2015-Jul-29 21:33N 43°23' W 001°47'0 0.0
2015-Jul-29 20:33N 43°23' W 001°47'1 1.5
2015-Jul-29 19:33N 43°25' W 001°48'2 0.0
2015-Jul-28 02:32N 43°26' W 001°48'3 3.3
2015-Jul-28 01:33N 43°23' W 001°47'0 0.3
2015-Jul-28 00:33N 43°23' W 001°47'0 0.1
2015-Jul-27 23:33N 43°23' W 001°47'0 0.0
2015-Jul-27 22:33N 43°23' W 001°47'0 0.0
2015-Jul-27 21:33N 43°23' W 001°47'0 0.0
2015-Jul-27 06:26N 43°23' W 001°47'0 0.1
2015-Jul-27 05:33N 43°23' W 001°47'0 0.0
2015-Jul-27 04:33N 43°23' W 001°47'0 0.0
2015-Jul-27 03:33N 43°23' W 001°47'0 0.0
2015-Jul-27 02:33N 43°23' W 001°47'0 0.0
2015-Jul-27 01:33N 43°23' W 001°47'0 0.2
2015-Jul-27 00:33N 43°23' W 001°47'0 0.3
2015-Jul-26 23:33N 43°23' W 001°47'0 0.1
2015-Jul-26 22:33N 43°23' W 001°47'0 0.0
2015-Jul-26 21:33N 43°23' W 001°47'0 0.0
2015-Jul-26 20:33N 43°23' W 001°47'1 0.1
2015-Jul-26 11:03N 43°23' W 001°47'3 6.2
2015-Jul-26 10:33N 43°24' W 001°43'0 0.2
2015-Jul-26 08:33N 43°24' W 001°43'3 0.1
2015-Jul-24 16:11N 43°23' W 001°47'5 0.1
2015-Jul-23 07:33N 43°27' W 001°44'4 4.4
2015-Jul-23 06:33N 43°23' W 001°40'4 3.6
2015-Jul-23 05:33N 43°25' W 001°44'3 2.8
2015-Jul-23 04:33N 43°23' W 001°47'0 0.3
2015-Jul-23 03:33N 43°23' W 001°47'0 0.3
2015-Jul-23 02:33N 43°23' W 001°47'0 0.0
2015-Jul-23 01:33N 43°23' W 001°47'0 0.0
2015-Jul-23 00:33N 43°23' W 001°47'0 0.0
2015-Jul-22 23:33N 43°23' W 001°47'0 0.0
2015-Jul-22 22:33N 43°23' W 001°47'0 0.0
2015-Jul-22 21:33N 43°23' W 001°47'0 0.0
2015-Jul-22 20:33N 43°23' W 001°47'0 0.0
2015-Jul-22 19:33N 43°23' W 001°47'0 0.0
2015-Jul-22 18:33N 43°23' W 001°47'0 0.4
2015-Jul-22 17:31N 43°23' W 001°48'1 0.1
2015-Jul-22 07:33N 43°24' W 001°47'1 0.6
2015-Jul-22 06:32N 43°23' W 001°47'0 0.0
2015-Jul-22 05:33N 43°23' W 001°47'0 0.0
2015-Jul-22 04:29N 43°23' W 001°47'0 0.3
2015-Jul-22 03:33N 43°23' W 001°47'0 0.3
2015-Jul-22 02:33N 43°23' W 001°47'0 0.1
2015-Jul-22 01:33N 43°23' W 001°47'0 0.0
2015-Jul-22 00:33N 43°23' W 001°47'0 0.0
2015-Jul-21 23:33N 43°23' W 001°47'0 0.0
2015-Jul-21 22:33N 43°23' W 001°47'0 0.1
2015-Jul-21 21:33N 43°23' W 001°47'0 0.0
2015-Jul-21 20:33N 43°23' W 001°47'  
Track history (hours):
 
Tides and Currents Weather Stations Pressure Air Temp Water Temp Dewpoint Dewpoint Depression Visibility Wind Speed Wind Dir Waves Ship Positions

F/V Attalaya Berria

Last reported at 2015-Jul-31 12:33 UTC. Time now 2015-Jul-31 21:26 UTC.
Position N 43°23' W 001°47'.

Length 26 m.

Type: Fishing. MMSI: 228315000.

Date/timePositionNaut miles runAvg speedWind from/ knotsBaromVisibWave heightAir tempDewpointWater temp
2015-Jul-31 12:33N 43°23' W 001°47'1 0.1
2015-Jul-31 03:33N 43°23' W 001°47'1 0.7
2015-Jul-31 02:33N 43°23' W 001°47'0 0.2
2015-Jul-31 01:33N 43°23' W 001°47'0 0.0
2015-Jul-31 00:33N 43°23' W 001°47'0 0.0
2015-Jul-30 23:33N 43°23' W 001°47'0 0.0
2015-Jul-30 22:33N 43°23' W 001°47'0 0.0
2015-Jul-30 21:33N 43°23' W 001°47'0 0.0
2015-Jul-30 20:33N 43°23' W 001°47'0 0.0
2015-Jul-30 19:33N 43°23' W 001°47'0 0.0
2015-Jul-30 18:33N 43°23' W 001°47'0 0.0
2015-Jul-30 17:33N 43°23' W 001°47'0 0.1
2015-Jul-30 16:33N 43°23' W 001°47'5 5.3
2015-Jul-30 15:32N 43°23' W 001°40'0 0.1
2015-Jul-30 14:31N 43°23' W 001°40'3 3.4
2015-Jul-30 13:33N 43°25' W 001°44'3 3.0
2015-Jul-30 12:33N 43°23' W 001°47'0 0.0
2015-Jul-30 11:33N 43°23' W 001°47'0 0.0
2015-Jul-30 10:33N 43°23' W 001°47'0 0.0
2015-Jul-30 09:33N 43°23' W 001°47'0 0.0
2015-Jul-30 08:33N 43°23' W 001°47'0 0.0
2015-Jul-30 07:33N 43°23' W 001°47'0 0.0
2015-Jul-30 06:33N 43°23' W 001°47'0 0.0
2015-Jul-30 05:33N 43°23' W 001°47'0 0.0
2015-Jul-30 04:33N 43°23' W 001°47'0 0.2
2015-Jul-30 03:34N 43°23' W 001°47'0 0.1
2015-Jul-30 02:33N 43°23' W 001°47'0 0.4
2015-Jul-30 01:33N 43°23' W 001°47'0 0.1
2015-Jul-30 00:33N 43°23' W 001°47'0 0.0
2015-Jul-29 23:33N 43°23' W 001°47'0 0.0
2015-Jul-29 22:33N 43°23' W 001°47'0 0.0
2015-Jul-29 21:33N 43°23' W 001°47'0 0.0
2015-Jul-29 20:33N 43°23' W 001°47'1 1.5
2015-Jul-29 19:33N 43°25' W 001°48'2 0.0
2015-Jul-28 02:32N 43°26' W 001°48'3 3.3
2015-Jul-28 01:33N 43°23' W 001°47'0 0.3
2015-Jul-28 00:33N 43°23' W 001°47'0 0.1
2015-Jul-27 23:33N 43°23' W 001°47'0 0.0
2015-Jul-27 22:33N 43°23' W 001°47'0 0.0
2015-Jul-27 21:33N 43°23' W 001°47'0 0.0
2015-Jul-27 06:26N 43°23' W 001°47'0 0.1
2015-Jul-27 05:33N 43°23' W 001°47'0 0.0
2015-Jul-27 04:33N 43°23' W 001°47'0 0.0
2015-Jul-27 03:33N 43°23' W 001°47'0 0.0
2015-Jul-27 02:33N 43°23' W 001°47'0 0.0
2015-Jul-27 01:33N 43°23' W 001°47'0 0.2
2015-Jul-27 00:33N 43°23' W 001°47'0 0.3
2015-Jul-26 23:33N 43°23' W 001°47'0 0.1
2015-Jul-26 22:33N 43°23' W 001°47'0 0.0
2015-Jul-26 21:33N 43°23' W 001°47'0 0.0
2015-Jul-26 20:33N 43°23' W 001°47'1 0.1
2015-Jul-26 11:03N 43°23' W 001°47'3 6.2
2015-Jul-26 10:33N 43°24' W 001°43'0 0.2
2015-Jul-26 08:33N 43°24' W 001°43'3 0.1
2015-Jul-24 16:11N 43°23' W 001°47'5 0.1
2015-Jul-23 07:33N 43°27' W 001°44'4 4.4
2015-Jul-23 06:33N 43°23' W 001°40'4 3.6
2015-Jul-23 05:33N 43°25' W 001°44'3 2.8
2015-Jul-23 04:33N 43°23' W 001°47'0 0.3
2015-Jul-23 03:33N 43°23' W 001°47'0 0.3
2015-Jul-23 02:33N 43°23' W 001°47'0 0.0
2015-Jul-23 01:33N 43°23' W 001°47'0 0.0
2015-Jul-23 00:33N 43°23' W 001°47'0 0.0
2015-Jul-22 23:33N 43°23' W 001°47'0 0.0
2015-Jul-22 22:33N 43°23' W 001°47'0 0.0
2015-Jul-22 21:33N 43°23' W 001°47'0 0.0
2015-Jul-22 20:33N 43°23' W 001°47'0 0.0
2015-Jul-22 19:33N 43°23' W 001°47'0 0.0
2015-Jul-22 18:33N 43°23' W 001°47'0 0.4
2015-Jul-22 17:31N 43°23' W 001°48'1 0.1
2015-Jul-22 07:33N 43°24' W 001°47'1 0.6
2015-Jul-22 06:32N 43°23' W 001°47'0 0.0
2015-Jul-22 05:33N 43°23' W 001°47'0 0.0
2015-Jul-22 04:29N 43°23' W 001°47'0 0.3
2015-Jul-22 03:33N 43°23' W 001°47'0 0.3
2015-Jul-22 02:33N 43°23' W 001°47'0 0.1
2015-Jul-22 01:33N 43°23' W 001°47'0 0.0
2015-Jul-22 00:33N 43°23' W 001°47'0 0.0
2015-Jul-21 23:33N 43°23' W 001°47'0 0.0
2015-Jul-21 22:33N 43°23' W 001°47'0 0.1
2015-Jul-21 21:33N 43°23' W 001°47'0 0.0
2015-Jul-21 20:33N 43°23' W 001°47'  

Dump ship's entire track history